sensor_id;sensor_type;location;lat;lon;timestamp;P1;durP1;ratioP1;P2;durP2;ratioP2
7195;SDS011;3639;51.308;5.624;2022-11-06T00:00:56;6.40;;;3.53;;
7195;SDS011;3639;51.308;5.624;2022-11-06T00:03:22;7.70;;;3.43;;
7195;SDS011;3639;51.308;5.624;2022-11-06T00:05:48;7.53;;;3.00;;
7195;SDS011;3639;51.308;5.624;2022-11-06T00:08:34;4.77;;;3.10;;
7195;SDS011;3639;51.308;5.624;2022-11-06T00:11:06;6.03;;;2.97;;
7195;SDS011;3639;51.308;5.624;2022-11-06T00:13:34;6.20;;;3.30;;
7195;SDS011;3639;51.308;5.624;2022-11-06T00:16:01;4.43;;;3.40;;
7195;SDS011;3639;51.308;5.624;2022-11-06T00:18:31;3.27;;;2.93;;
7195;SDS011;3639;51.308;5.624;2022-11-06T00:20:57;4.57;;;2.90;;
7195;SDS011;3639;51.308;5.624;2022-11-06T00:23:23;3.93;;;2.70;;
7195;SDS011;3639;51.308;5.624;2022-11-06T00:25:49;6.13;;;2.77;;
7195;SDS011;3639;51.308;5.624;2022-11-06T00:28:20;4.03;;;3.20;;
7195;SDS011;3639;51.308;5.624;2022-11-06T00:30:46;5.60;;;3.23;;
7195;SDS011;3639;51.308;5.624;2022-11-06T00:33:11;6.30;;;3.27;;
7195;SDS011;3639;51.308;5.624;2022-11-06T00:35:38;5.87;;;3.70;;
7195;SDS011;3639;51.308;5.624;2022-11-06T00:38:04;4.17;;;3.00;;
7195;SDS011;3639;51.308;5.624;2022-11-06T00:40:29;6.43;;;3.30;;
7195;SDS011;3639;51.308;5.624;2022-11-06T00:42:55;6.47;;;2.73;;
7195;SDS011;3639;51.308;5.624;2022-11-06T00:45:22;6.53;;;2.87;;
7195;SDS011;3639;51.308;5.624;2022-11-06T00:47:49;3.20;;;2.73;;
7195;SDS011;3639;51.308;5.624;2022-11-06T00:50:14;4.67;;;3.10;;
7195;SDS011;3639;51.308;5.624;2022-11-06T00:52:41;5.03;;;2.93;;
7195;SDS011;3639;51.308;5.624;2022-11-06T00:55:07;5.97;;;2.93;;
7195;SDS011;3639;51.308;5.624;2022-11-06T00:57:33;4.77;;;3.00;;
7195;SDS011;3639;51.308;5.624;2022-11-06T00:59:59;8.13;;;3.20;;
7195;SDS011;3639;51.308;5.624;2022-11-06T01:02:24;4.63;;;2.93;;
7195;SDS011;3639;51.308;5.624;2022-11-06T01:04:50;5.70;;;2.80;;
7195;SDS011;3639;51.308;5.624;2022-11-06T01:07:16;4.93;;;2.60;;
7195;SDS011;3639;51.308;5.624;2022-11-06T01:09:41;7.87;;;2.80;;
7195;SDS011;3639;51.308;5.624;2022-11-06T01:12:07;6.23;;;2.47;;
7195;SDS011;3639;51.308;5.624;2022-11-06T01:14:33;4.73;;;2.30;;
7195;SDS011;3639;51.308;5.624;2022-11-06T01:16:58;6.03;;;2.83;;
7195;SDS011;3639;51.308;5.624;2022-11-06T01:19:24;5.80;;;2.73;;
7195;SDS011;3639;51.308;5.624;2022-11-06T01:21:50;3.83;;;2.80;;
7195;SDS011;3639;51.308;5.624;2022-11-06T01:24:21;6.93;;;2.70;;
7195;SDS011;3639;51.308;5.624;2022-11-06T01:26:48;12.03;;;3.00;;
7195;SDS011;3639;51.308;5.624;2022-11-06T01:29:15;3.90;;;2.53;;
7195;SDS011;3639;51.308;5.624;2022-11-06T01:31:42;5.10;;;3.00;;
7195;SDS011;3639;51.308;5.624;2022-11-06T01:34:09;7.60;;;2.90;;
7195;SDS011;3639;51.308;5.624;2022-11-06T01:36:35;7.57;;;2.93;;
7195;SDS011;3639;51.308;5.624;2022-11-06T01:39:02;10.23;;;2.80;;
7195;SDS011;3639;51.308;5.624;2022-11-06T01:41:49;4.83;;;2.80;;
7195;SDS011;3639;51.308;5.624;2022-11-06T01:47:03;8.43;;;2.60;;
7195;SDS011;3639;51.308;5.624;2022-11-06T01:49:40;5.47;;;2.57;;
7195;SDS011;3639;51.308;5.624;2022-11-06T01:52:07;8.23;;;2.70;;
7195;SDS011;3639;51.308;5.624;2022-11-06T01:54:35;4.70;;;2.73;;
7195;SDS011;3639;51.308;5.624;2022-11-06T01:57:03;6.67;;;2.47;;
7195;SDS011;3639;51.308;5.624;2022-11-06T01:59:31;5.00;;;2.97;;
7195;SDS011;3639;51.308;5.624;2022-11-06T02:02:00;6.63;;;2.30;;
7195;SDS011;3639;51.308;5.624;2022-11-06T02:04:27;5.47;;;3.80;;
7195;SDS011;3639;51.308;5.624;2022-11-06T02:06:56;7.93;;;2.60;;
7195;SDS011;3639;51.308;5.624;2022-11-06T02:09:23;4.30;;;2.57;;
7195;SDS011;3639;51.308;5.624;2022-11-06T02:12:02;5.00;;;2.53;;
7195;SDS011;3639;51.308;5.624;2022-11-06T02:20:14;4.40;;;2.90;;
7195;SDS011;3639;51.308;5.624;2022-11-06T02:25:19;4.33;;;2.50;;
7195;SDS011;3639;51.308;5.624;2022-11-06T02:27:53;2.50;;;2.30;;
7195;SDS011;3639;51.308;5.624;2022-11-06T02:30:27;4.83;;;2.17;;
7195;SDS011;3639;51.308;5.624;2022-11-06T02:33:01;3.63;;;2.50;;
7195;SDS011;3639;51.308;5.624;2022-11-06T02:35:37;3.77;;;3.07;;
7195;SDS011;3639;51.308;5.624;2022-11-06T02:38:33;4.70;;;2.43;;
7195;SDS011;3639;51.308;5.624;2022-11-06T02:41:06;5.60;;;2.63;;
7195;SDS011;3639;51.308;5.624;2022-11-06T02:43:37;5.67;;;2.70;;
7195;SDS011;3639;51.308;5.624;2022-11-06T02:49:21;3.10;;;2.63;;
7195;SDS011;3639;51.308;5.624;2022-11-06T02:51:57;5.83;;;2.50;;
7195;SDS011;3639;51.308;5.624;2022-11-06T02:54:28;5.43;;;3.00;;
7195;SDS011;3639;51.308;5.624;2022-11-06T02:56:59;2.90;;;2.33;;
7195;SDS011;3639;51.308;5.624;2022-11-06T03:02:47;7.50;;;3.00;;
7195;SDS011;3639;51.308;5.624;2022-11-06T03:05:23;4.83;;;2.53;;
7195;SDS011;3639;51.308;5.624;2022-11-06T03:10:33;3.17;;;2.20;;
7195;SDS011;3639;51.308;5.624;2022-11-06T03:13:27;6.43;;;2.60;;
7195;SDS011;3639;51.308;5.624;2022-11-06T03:16:12;7.77;;;2.80;;
7195;SDS011;3639;51.308;5.624;2022-11-06T03:21:50;3.20;;;2.23;;
7195;SDS011;3639;51.308;5.624;2022-11-06T03:24:32;3.97;;;2.57;;
7195;SDS011;3639;51.308;5.624;2022-11-06T03:27:06;6.00;;;2.80;;
7195;SDS011;3639;51.308;5.624;2022-11-06T03:29:45;8.90;;;2.60;;
7195;SDS011;3639;51.308;5.624;2022-11-06T03:32:42;4.53;;;2.40;;
7195;SDS011;3639;51.308;5.624;2022-11-06T03:35:18;3.97;;;2.27;;
7195;SDS011;3639;51.308;5.624;2022-11-06T03:37:50;3.40;;;2.40;;
7195;SDS011;3639;51.308;5.624;2022-11-06T03:40:21;6.30;;;2.70;;
7195;SDS011;3639;51.308;5.624;2022-11-06T03:42:50;2.73;;;2.53;;
7195;SDS011;3639;51.308;5.624;2022-11-06T03:45:20;4.13;;;2.53;;
7195;SDS011;3639;51.308;5.624;2022-11-06T03:47:51;4.70;;;2.50;;
7195;SDS011;3639;51.308;5.624;2022-11-06T03:50:33;2.63;;;2.33;;
7195;SDS011;3639;51.308;5.624;2022-11-06T03:53:15;3.53;;;2.70;;
7195;SDS011;3639;51.308;5.624;2022-11-06T03:55:51;5.70;;;2.90;;
7195;SDS011;3639;51.308;5.624;2022-11-06T03:58:27;6.40;;;2.70;;
7195;SDS011;3639;51.308;5.624;2022-11-06T04:00:57;4.43;;;2.80;;
7195;SDS011;3639;51.308;5.624;2022-11-06T04:03:27;6.23;;;2.77;;
7195;SDS011;3639;51.308;5.624;2022-11-06T04:06:15;5.63;;;2.80;;
7195;SDS011;3639;51.308;5.624;2022-11-06T04:08:51;2.83;;;2.63;;
7195;SDS011;3639;51.308;5.624;2022-11-06T04:11:38;4.23;;;2.97;;
7195;SDS011;3639;51.308;5.624;2022-11-06T04:14:25;4.13;;;2.40;;
7195;SDS011;3639;51.308;5.624;2022-11-06T04:16:54;6.10;;;3.00;;
7195;SDS011;3639;51.308;5.624;2022-11-06T04:19:23;9.03;;;2.60;;
7195;SDS011;3639;51.308;5.624;2022-11-06T04:30:23;3.40;;;2.50;;
7195;SDS011;3639;51.308;5.624;2022-11-06T04:36:03;2.57;;;2.17;;
7195;SDS011;3639;51.308;5.624;2022-11-06T04:38:52;4.77;;;2.53;;
7195;SDS011;3639;51.308;5.624;2022-11-06T04:44:45;3.97;;;2.50;;
7195;SDS011;3639;51.308;5.624;2022-11-06T04:46:54;2.60;;;2.27;;
7195;SDS011;3639;51.308;5.624;2022-11-06T04:49:23;4.60;;;2.70;;
7195;SDS011;3639;51.308;5.624;2022-11-06T04:51:50;6.40;;;2.63;;
7195;SDS011;3639;51.308;5.624;2022-11-06T04:54:17;6.57;;;2.57;;
7195;SDS011;3639;51.308;5.624;2022-11-06T04:56:43;4.17;;;2.53;;
7195;SDS011;3639;51.308;5.624;2022-11-06T04:59:10;6.73;;;2.77;;
7195;SDS011;3639;51.308;5.624;2022-11-06T05:01:38;6.83;;;2.90;;
7195;SDS011;3639;51.308;5.624;2022-11-06T05:04:04;3.67;;;2.20;;
7195;SDS011;3639;51.308;5.624;2022-11-06T05:06:29;4.80;;;2.33;;
7195;SDS011;3639;51.308;5.624;2022-11-06T05:08:55;3.47;;;2.70;;
7195;SDS011;3639;51.308;5.624;2022-11-06T05:11:22;5.93;;;2.70;;
7195;SDS011;3639;51.308;5.624;2022-11-06T05:13:47;2.43;;;2.20;;
7195;SDS011;3639;51.308;5.624;2022-11-06T05:16:13;10.63;;;2.63;;
7195;SDS011;3639;51.308;5.624;2022-11-06T05:18:39;8.77;;;2.50;;
7195;SDS011;3639;51.308;5.624;2022-11-06T05:21:04;2.93;;;2.50;;
7195;SDS011;3639;51.308;5.624;2022-11-06T05:23:49;4.10;;;2.03;;
7195;SDS011;3639;51.308;5.624;2022-11-06T05:26:14;2.77;;;2.53;;
7195;SDS011;3639;51.308;5.624;2022-11-06T05:28:40;3.10;;;2.20;;
7195;SDS011;3639;51.308;5.624;2022-11-06T05:31:05;6.17;;;2.27;;
7195;SDS011;3639;51.308;5.624;2022-11-06T05:33:31;6.60;;;2.33;;
7195;SDS011;3639;51.308;5.624;2022-11-06T05:36:00;4.30;;;2.50;;
7195;SDS011;3639;51.308;5.624;2022-11-06T05:38:27;6.13;;;2.77;;
7195;SDS011;3639;51.308;5.624;2022-11-06T05:40:53;10.13;;;2.70;;
7195;SDS011;3639;51.308;5.624;2022-11-06T05:43:18;6.80;;;2.40;;
7195;SDS011;3639;51.308;5.624;2022-11-06T05:45:44;2.67;;;2.40;;
7195;SDS011;3639;51.308;5.624;2022-11-06T05:48:10;4.10;;;2.70;;
7195;SDS011;3639;51.308;5.624;2022-11-06T05:50:35;6.03;;;2.83;;
7195;SDS011;3639;51.308;5.624;2022-11-06T05:53:01;2.77;;;2.50;;
7195;SDS011;3639;51.308;5.624;2022-11-06T05:55:26;4.27;;;2.20;;
7195;SDS011;3639;51.308;5.624;2022-11-06T05:57:52;5.10;;;2.97;;
7195;SDS011;3639;51.308;5.624;2022-11-06T06:00:18;4.23;;;2.47;;
7195;SDS011;3639;51.308;5.624;2022-11-06T06:02:43;3.40;;;2.53;;
7195;SDS011;3639;51.308;5.624;2022-11-06T06:05:09;3.17;;;2.50;;
7195;SDS011;3639;51.308;5.624;2022-11-06T06:07:35;6.93;;;2.57;;
7195;SDS011;3639;51.308;5.624;2022-11-06T06:10:00;3.03;;;2.60;;
7195;SDS011;3639;51.308;5.624;2022-11-06T06:12:26;4.87;;;2.53;;
7195;SDS011;3639;51.308;5.624;2022-11-06T06:14:52;3.93;;;2.50;;
7195;SDS011;3639;51.308;5.624;2022-11-06T06:17:18;7.93;;;2.30;;
7195;SDS011;3639;51.308;5.624;2022-11-06T06:19:43;7.57;;;2.70;;
7195;SDS011;3639;51.308;5.624;2022-11-06T06:22:09;3.40;;;2.70;;
7195;SDS011;3639;51.308;5.624;2022-11-06T06:24:35;7.17;;;2.60;;
7195;SDS011;3639;51.308;5.624;2022-11-06T06:27:01;3.93;;;2.40;;
7195;SDS011;3639;51.308;5.624;2022-11-06T06:29:26;4.17;;;2.40;;
7195;SDS011;3639;51.308;5.624;2022-11-06T06:31:52;6.23;;;2.53;;
7195;SDS011;3639;51.308;5.624;2022-11-06T06:34:17;3.63;;;2.33;;
7195;SDS011;3639;51.308;5.624;2022-11-06T06:36:43;2.83;;;2.30;;
7195;SDS011;3639;51.308;5.624;2022-11-06T06:39:09;9.20;;;2.67;;
7195;SDS011;3639;51.308;5.624;2022-11-06T06:41:34;2.40;;;2.20;;
7195;SDS011;3639;51.308;5.624;2022-11-06T06:44:00;2.73;;;2.17;;
7195;SDS011;3639;51.308;5.624;2022-11-06T06:46:26;2.30;;;2.10;;
7195;SDS011;3639;51.308;5.624;2022-11-06T06:48:52;6.30;;;2.17;;
7195;SDS011;3639;51.308;5.624;2022-11-06T06:51:17;5.77;;;2.47;;
7195;SDS011;3639;51.308;5.624;2022-11-06T06:53:43;2.67;;;2.40;;
7195;SDS011;3639;51.308;5.624;2022-11-06T06:56:09;4.47;;;2.60;;
7195;SDS011;3639;51.308;5.624;2022-11-06T06:58:34;6.33;;;2.40;;
7195;SDS011;3639;51.308;5.624;2022-11-06T07:01:01;5.70;;;2.27;;
7195;SDS011;3639;51.308;5.624;2022-11-06T07:03:29;6.30;;;2.20;;
7195;SDS011;3639;51.308;5.624;2022-11-06T07:05:55;7.60;;;2.93;;
7195;SDS011;3639;51.308;5.624;2022-11-06T07:08:22;4.70;;;2.43;;
7195;SDS011;3639;51.308;5.624;2022-11-06T07:10:49;3.00;;;2.13;;
7195;SDS011;3639;51.308;5.624;2022-11-06T07:13:14;2.10;;;2.00;;
7195;SDS011;3639;51.308;5.624;2022-11-06T07:15:40;4.73;;;1.80;;
7195;SDS011;3639;51.308;5.624;2022-11-06T07:18:06;3.27;;;2.67;;
7195;SDS011;3639;51.308;5.624;2022-11-06T07:20:32;2.67;;;2.47;;
7195;SDS011;3639;51.308;5.624;2022-11-06T07:22:58;5.70;;;2.37;;
7195;SDS011;3639;51.308;5.624;2022-11-06T07:25:28;4.30;;;2.13;;
7195;SDS011;3639;51.308;5.624;2022-11-06T07:27:54;2.60;;;2.37;;
7195;SDS011;3639;51.308;5.624;2022-11-06T07:30:23;6.47;;;2.40;;
7195;SDS011;3639;51.308;5.624;2022-11-06T07:32:49;3.30;;;2.20;;
7195;SDS011;3639;51.308;5.624;2022-11-06T07:35:14;3.30;;;2.30;;
7195;SDS011;3639;51.308;5.624;2022-11-06T07:37:40;3.93;;;2.07;;
7195;SDS011;3639;51.308;5.624;2022-11-06T07:40:06;4.60;;;2.27;;
7195;SDS011;3639;51.308;5.624;2022-11-06T07:42:33;3.57;;;2.30;;
7195;SDS011;3639;51.308;5.624;2022-11-06T07:44:58;3.13;;;2.40;;
7195;SDS011;3639;51.308;5.624;2022-11-06T07:47:24;5.10;;;2.33;;
7195;SDS011;3639;51.308;5.624;2022-11-06T07:49:51;2.53;;;2.00;;
7195;SDS011;3639;51.308;5.624;2022-11-06T07:52:17;3.70;;;2.30;;
7195;SDS011;3639;51.308;5.624;2022-11-06T07:54:43;3.87;;;1.80;;
7195;SDS011;3639;51.308;5.624;2022-11-06T07:57:08;8.80;;;2.37;;
7195;SDS011;3639;51.308;5.624;2022-11-06T07:59:34;5.43;;;2.23;;
7195;SDS011;3639;51.308;5.624;2022-11-06T08:01:59;2.90;;;2.30;;
7195;SDS011;3639;51.308;5.624;2022-11-06T08:04:25;4.27;;;2.13;;
7195;SDS011;3639;51.308;5.624;2022-11-06T08:06:50;2.13;;;1.83;;
7195;SDS011;3639;51.308;5.624;2022-11-06T08:09:16;5.77;;;2.00;;
7195;SDS011;3639;51.308;5.624;2022-11-06T08:11:42;3.67;;;2.07;;
7195;SDS011;3639;51.308;5.624;2022-11-06T08:14:07;2.90;;;2.20;;
7195;SDS011;3639;51.308;5.624;2022-11-06T08:16:34;7.00;;;1.80;;
7195;SDS011;3639;51.308;5.624;2022-11-06T08:19:00;2.60;;;2.07;;
7195;SDS011;3639;51.308;5.624;2022-11-06T08:21:25;4.13;;;2.30;;
7195;SDS011;3639;51.308;5.624;2022-11-06T08:23:51;5.50;;;1.80;;
7195;SDS011;3639;51.308;5.624;2022-11-06T08:26:17;2.67;;;1.80;;
7195;SDS011;3639;51.308;5.624;2022-11-06T08:28:42;6.53;;;2.47;;
7195;SDS011;3639;51.308;5.624;2022-11-06T08:31:08;5.23;;;2.03;;
7195;SDS011;3639;51.308;5.624;2022-11-06T08:33:34;3.63;;;1.70;;
7195;SDS011;3639;51.308;5.624;2022-11-06T08:36:05;2.10;;;1.70;;
7195;SDS011;3639;51.308;5.624;2022-11-06T08:38:32;4.43;;;1.90;;
7195;SDS011;3639;51.308;5.624;2022-11-06T08:40:57;4.00;;;2.00;;
7195;SDS011;3639;51.308;5.624;2022-11-06T08:43:27;3.53;;;2.10;;
7195;SDS011;3639;51.308;5.624;2022-11-06T08:45:53;4.00;;;1.70;;
7195;SDS011;3639;51.308;5.624;2022-11-06T08:48:18;4.37;;;2.27;;
7195;SDS011;3639;51.308;5.624;2022-11-06T08:50:44;3.50;;;2.03;;
7195;SDS011;3639;51.308;5.624;2022-11-06T08:53:10;6.07;;;1.70;;
7195;SDS011;3639;51.308;5.624;2022-11-06T08:55:36;3.10;;;1.87;;
7195;SDS011;3639;51.308;5.624;2022-11-06T08:58:03;2.93;;;2.07;;
7195;SDS011;3639;51.308;5.624;2022-11-06T09:00:30;4.53;;;2.23;;
7195;SDS011;3639;51.308;5.624;2022-11-06T09:02:59;5.93;;;1.90;;
7195;SDS011;3639;51.308;5.624;2022-11-06T09:05:26;5.73;;;1.73;;
7195;SDS011;3639;51.308;5.624;2022-11-06T09:07:54;3.93;;;1.80;;
7195;SDS011;3639;51.308;5.624;2022-11-06T09:10:20;2.73;;;1.57;;
7195;SDS011;3639;51.308;5.624;2022-11-06T09:12:46;1.70;;;1.60;;
7195;SDS011;3639;51.308;5.624;2022-11-06T09:15:12;2.07;;;1.70;;
7195;SDS011;3639;51.308;5.624;2022-11-06T09:17:44;7.60;;;3.30;;
7195;SDS011;3639;51.308;5.624;2022-11-06T09:20:12;4.47;;;1.50;;
7195;SDS011;3639;51.308;5.624;2022-11-06T09:22:39;5.67;;;2.17;;
7195;SDS011;3639;51.308;5.624;2022-11-06T09:25:05;2.13;;;1.70;;
7195;SDS011;3639;51.308;5.624;2022-11-06T09:27:32;4.33;;;1.80;;
7195;SDS011;3639;51.308;5.624;2022-11-06T09:30:04;4.57;;;1.70;;
7195;SDS011;3639;51.308;5.624;2022-11-06T09:32:30;3.93;;;1.60;;
7195;SDS011;3639;51.308;5.624;2022-11-06T09:34:56;5.83;;;1.90;;
7195;SDS011;3639;51.308;5.624;2022-11-06T09:37:22;2.60;;;1.67;;
7195;SDS011;3639;51.308;5.624;2022-11-06T09:39:48;4.03;;;1.83;;
7195;SDS011;3639;51.308;5.624;2022-11-06T09:45:22;4.77;;;1.63;;
7195;SDS011;3639;51.308;5.624;2022-11-06T09:50:43;2.80;;;1.50;;
7195;SDS011;3639;51.308;5.624;2022-11-06T09:53:33;3.53;;;1.67;;
7195;SDS011;3639;51.308;5.624;2022-11-06T09:56:09;2.90;;;2.13;;
7195;SDS011;3639;51.308;5.624;2022-11-06T09:58:39;2.27;;;1.57;;
7195;SDS011;3639;51.308;5.624;2022-11-06T10:01:20;10.67;;;4.20;;
7195;SDS011;3639;51.308;5.624;2022-11-06T10:04:00;4.90;;;1.70;;
7195;SDS011;3639;51.308;5.624;2022-11-06T10:06:28;2.33;;;1.67;;
7195;SDS011;3639;51.308;5.624;2022-11-06T10:09:03;4.23;;;1.80;;
7195;SDS011;3639;51.308;5.624;2022-11-06T10:14:20;1.87;;;1.50;;
7195;SDS011;3639;51.308;5.624;2022-11-06T10:24:38;5.47;;;1.80;;
7195;SDS011;3639;51.308;5.624;2022-11-06T10:27:17;1.87;;;1.53;;
7195;SDS011;3639;51.308;5.624;2022-11-06T10:35:31;4.50;;;1.67;;
7195;SDS011;3639;51.308;5.624;2022-11-06T10:38:14;2.27;;;1.50;;
7195;SDS011;3639;51.308;5.624;2022-11-06T10:40:46;8.93;;;2.53;;
7195;SDS011;3639;51.308;5.624;2022-11-06T10:46:29;5.43;;;1.77;;
7195;SDS011;3639;51.308;5.624;2022-11-06T10:49:15;2.73;;;1.40;;
7195;SDS011;3639;51.308;5.624;2022-11-06T10:52:13;2.13;;;1.40;;
7195;SDS011;3639;51.308;5.624;2022-11-06T10:58:17;3.77;;;1.80;;
7195;SDS011;3639;51.308;5.624;2022-11-06T11:00:46;4.93;;;1.60;;
7195;SDS011;3639;51.308;5.624;2022-11-06T11:05:53;1.93;;;1.30;;
7195;SDS011;3639;51.308;5.624;2022-11-06T11:13:38;4.73;;;1.50;;
7195;SDS011;3639;51.308;5.624;2022-11-06T11:16:09;2.43;;;1.70;;
7195;SDS011;3639;51.308;5.624;2022-11-06T11:18:42;4.40;;;2.00;;
7195;SDS011;3639;51.308;5.624;2022-11-06T11:24:03;1.53;;;1.43;;
7195;SDS011;3639;51.308;5.624;2022-11-06T11:26:29;3.50;;;1.80;;
7195;SDS011;3639;51.308;5.624;2022-11-06T11:28:58;1.83;;;1.60;;
7195;SDS011;3639;51.308;5.624;2022-11-06T11:31:28;5.13;;;1.50;;
7195;SDS011;3639;51.308;5.624;2022-11-06T11:33:57;2.80;;;1.33;;
7195;SDS011;3639;51.308;5.624;2022-11-06T11:36:30;4.97;;;1.27;;
7195;SDS011;3639;51.308;5.624;2022-11-06T11:39:16;3.73;;;1.50;;
7195;SDS011;3639;51.308;5.624;2022-11-06T11:41:43;3.87;;;1.60;;
7195;SDS011;3639;51.308;5.624;2022-11-06T11:46:36;5.90;;;1.47;;
7195;SDS011;3639;51.308;5.624;2022-11-06T11:49:24;3.13;;;1.50;;
7195;SDS011;3639;51.308;5.624;2022-11-06T11:51:51;6.90;;;1.50;;
7195;SDS011;3639;51.308;5.624;2022-11-06T11:54:18;3.10;;;1.80;;
7195;SDS011;3639;51.308;5.624;2022-11-06T11:56:51;1.63;;;1.43;;
7195;SDS011;3639;51.308;5.624;2022-11-06T11:59:44;3.77;;;1.53;;
7195;SDS011;3639;51.308;5.624;2022-11-06T12:04:42;2.37;;;1.53;;
7195;SDS011;3639;51.308;5.624;2022-11-06T12:07:30;2.60;;;1.33;;
7195;SDS011;3639;51.308;5.624;2022-11-06T12:09:58;5.40;;;1.63;;
7195;SDS011;3639;51.308;5.624;2022-11-06T12:12:29;3.33;;;1.80;;
7195;SDS011;3639;51.308;5.624;2022-11-06T12:17:30;2.50;;;1.40;;
7195;SDS011;3639;51.308;5.624;2022-11-06T12:19:57;2.03;;;1.70;;
7195;SDS011;3639;51.308;5.624;2022-11-06T12:22:31;4.17;;;1.90;;
7195;SDS011;3639;51.308;5.624;2022-11-06T12:25:03;3.73;;;1.47;;
7195;SDS011;3639;51.308;5.624;2022-11-06T12:27:54;3.93;;;1.47;;
7195;SDS011;3639;51.308;5.624;2022-11-06T12:30:23;1.20;;;1.10;;
7195;SDS011;3639;51.308;5.624;2022-11-06T12:33:00;2.47;;;1.30;;
7195;SDS011;3639;51.308;5.624;2022-11-06T12:35:28;2.93;;;1.30;;
7195;SDS011;3639;51.308;5.624;2022-11-06T12:43:48;3.23;;;1.63;;
7195;SDS011;3639;51.308;5.624;2022-11-06T12:46:32;2.20;;;1.40;;
7195;SDS011;3639;51.308;5.624;2022-11-06T12:54:36;6.13;;;1.57;;
7195;SDS011;3639;51.308;5.624;2022-11-06T13:02:58;2.20;;;1.43;;
7195;SDS011;3639;51.308;5.624;2022-11-06T13:08:30;6.80;;;1.80;;
7195;SDS011;3639;51.308;5.624;2022-11-06T13:11:01;2.17;;;1.70;;
7195;SDS011;3639;51.308;5.624;2022-11-06T13:18:55;2.40;;;1.70;;
7195;SDS011;3639;51.308;5.624;2022-11-06T13:24:27;2.07;;;1.30;;
7195;SDS011;3639;51.308;5.624;2022-11-06T13:29:45;4.13;;;3.03;;
7195;SDS011;3639;51.308;5.624;2022-11-06T13:32:15;2.03;;;1.50;;
7195;SDS011;3639;51.308;5.624;2022-11-06T13:34:46;2.37;;;1.60;;
7195;SDS011;3639;51.308;5.624;2022-11-06T13:37:16;4.80;;;1.90;;
7195;SDS011;3639;51.308;5.624;2022-11-06T13:39:49;3.43;;;1.50;;
7195;SDS011;3639;51.308;5.624;2022-11-06T13:42:44;4.47;;;1.60;;
7195;SDS011;3639;51.308;5.624;2022-11-06T13:45:40;2.30;;;1.80;;
7195;SDS011;3639;51.308;5.624;2022-11-06T13:54:05;2.03;;;1.70;;
7195;SDS011;3639;51.308;5.624;2022-11-06T13:57:00;3.53;;;1.70;;
7195;SDS011;3639;51.308;5.624;2022-11-06T14:07:55;2.23;;;2.03;;
7195;SDS011;3639;51.308;5.624;2022-11-06T14:10:29;4.77;;;1.80;;
7195;SDS011;3639;51.308;5.624;2022-11-06T14:13:01;2.07;;;1.70;;
7195;SDS011;3639;51.308;5.624;2022-11-06T14:15:37;2.80;;;2.10;;
7195;SDS011;3639;51.308;5.624;2022-11-06T14:18:10;2.33;;;2.10;;
7195;SDS011;3639;51.308;5.624;2022-11-06T14:20:44;3.70;;;3.27;;
7195;SDS011;3639;51.308;5.624;2022-11-06T14:26:01;4.50;;;1.80;;
7195;SDS011;3639;51.308;5.624;2022-11-06T14:28:32;5.03;;;2.13;;
7195;SDS011;3639;51.308;5.624;2022-11-06T14:31:00;6.63;;;2.00;;
7195;SDS011;3639;51.308;5.624;2022-11-06T14:38:51;3.27;;;1.83;;
7195;SDS011;3639;51.308;5.624;2022-11-06T14:43:58;4.10;;;2.03;;
7195;SDS011;3639;51.308;5.624;2022-11-06T14:46:39;1.90;;;1.80;;
7195;SDS011;3639;51.308;5.624;2022-11-06T14:49:32;3.47;;;2.17;;
7195;SDS011;3639;51.308;5.624;2022-11-06T14:52:10;2.10;;;1.90;;
7195;SDS011;3639;51.308;5.624;2022-11-06T14:54:39;2.40;;;1.80;;
7195;SDS011;3639;51.308;5.624;2022-11-06T14:57:38;3.17;;;2.03;;
7195;SDS011;3639;51.308;5.624;2022-11-06T15:00:46;2.20;;;2.00;;
7195;SDS011;3639;51.308;5.624;2022-11-06T15:03:15;5.57;;;2.00;;
7195;SDS011;3639;51.308;5.624;2022-11-06T15:05:52;6.37;;;3.40;;
7195;SDS011;3639;51.308;5.624;2022-11-06T15:12:12;3.43;;;2.80;;
7195;SDS011;3639;51.308;5.624;2022-11-06T15:16:37;4.13;;;2.50;;
7195;SDS011;3639;51.308;5.624;2022-11-06T15:19:05;2.77;;;2.50;;
7195;SDS011;3639;51.308;5.624;2022-11-06T15:21:44;8.17;;;2.57;;
7195;SDS011;3639;51.308;5.624;2022-11-06T15:24:20;2.37;;;2.10;;
7195;SDS011;3639;51.308;5.624;2022-11-06T15:26:53;2.80;;;2.00;;
7195;SDS011;3639;51.308;5.624;2022-11-06T15:29:24;3.67;;;2.40;;
7195;SDS011;3639;51.308;5.624;2022-11-06T15:31:53;5.73;;;2.40;;
7195;SDS011;3639;51.308;5.624;2022-11-06T15:34:49;4.23;;;2.27;;
7195;SDS011;3639;51.308;5.624;2022-11-06T15:37:25;3.47;;;2.63;;
7195;SDS011;3639;51.308;5.624;2022-11-06T15:39:56;2.40;;;2.20;;
7195;SDS011;3639;51.308;5.624;2022-11-06T15:42:23;2.23;;;2.03;;
7195;SDS011;3639;51.308;5.624;2022-11-06T15:44:51;2.80;;;2.60;;
7195;SDS011;3639;51.308;5.624;2022-11-06T15:47:39;3.07;;;2.50;;
7195;SDS011;3639;51.308;5.624;2022-11-06T15:52:43;3.80;;;2.20;;
7195;SDS011;3639;51.308;5.624;2022-11-06T15:55:29;3.53;;;2.40;;
7195;SDS011;3639;51.308;5.624;2022-11-06T15:58:07;6.20;;;3.43;;
7195;SDS011;3639;51.308;5.624;2022-11-06T16:00:47;8.77;;;2.80;;
7195;SDS011;3639;51.308;5.624;2022-11-06T16:03:16;7.33;;;3.60;;
7195;SDS011;3639;51.308;5.624;2022-11-06T16:05:44;9.30;;;2.77;;
7195;SDS011;3639;51.308;5.624;2022-11-06T16:08:11;3.80;;;3.07;;
7195;SDS011;3639;51.308;5.624;2022-11-06T16:10:38;4.23;;;3.00;;
7195;SDS011;3639;51.308;5.624;2022-11-06T16:13:05;5.27;;;2.90;;
7195;SDS011;3639;51.308;5.624;2022-11-06T16:20:47;5.60;;;3.87;;
7195;SDS011;3639;51.308;5.624;2022-11-06T16:23:19;4.97;;;3.57;;
7195;SDS011;3639;51.308;5.624;2022-11-06T16:26:08;3.27;;;2.77;;
7195;SDS011;3639;51.308;5.624;2022-11-06T16:28:40;4.00;;;3.30;;
7195;SDS011;3639;51.308;5.624;2022-11-06T16:31:09;4.77;;;3.13;;
7195;SDS011;3639;51.308;5.624;2022-11-06T16:39:40;4.57;;;2.93;;
7195;SDS011;3639;51.308;5.624;2022-11-06T16:47:11;4.63;;;3.20;;
7195;SDS011;3639;51.308;5.624;2022-11-06T16:49:42;5.97;;;4.00;;
7195;SDS011;3639;51.308;5.624;2022-11-06T16:55:05;4.77;;;3.50;;
7195;SDS011;3639;51.308;5.624;2022-11-06T16:57:49;7.03;;;3.83;;
7195;SDS011;3639;51.308;5.624;2022-11-06T17:00:22;4.50;;;3.90;;
7195;SDS011;3639;51.308;5.624;2022-11-06T17:02:57;4.83;;;3.47;;
7195;SDS011;3639;51.308;5.624;2022-11-06T17:05:29;3.07;;;2.77;;
7195;SDS011;3639;51.308;5.624;2022-11-06T17:10:48;4.97;;;3.27;;
7195;SDS011;3639;51.308;5.624;2022-11-06T17:13:33;4.57;;;3.03;;
7195;SDS011;3639;51.308;5.624;2022-11-06T17:16:04;3.63;;;2.90;;
7195;SDS011;3639;51.308;5.624;2022-11-06T17:18:31;6.30;;;3.90;;
7195;SDS011;3639;51.308;5.624;2022-11-06T17:21:00;3.90;;;3.17;;
7195;SDS011;3639;51.308;5.624;2022-11-06T17:23:30;4.07;;;3.60;;
7195;SDS011;3639;51.308;5.624;2022-11-06T17:25:58;3.87;;;3.00;;
7195;SDS011;3639;51.308;5.624;2022-11-06T17:28:26;3.37;;;2.90;;
7195;SDS011;3639;51.308;5.624;2022-11-06T17:30:52;4.23;;;3.70;;
7195;SDS011;3639;51.308;5.624;2022-11-06T17:33:19;5.33;;;3.53;;
7195;SDS011;3639;51.308;5.624;2022-11-06T17:35:45;4.13;;;3.73;;
7195;SDS011;3639;51.308;5.624;2022-11-06T17:38:12;4.17;;;3.37;;
7195;SDS011;3639;51.308;5.624;2022-11-06T17:40:39;3.77;;;3.40;;
7195;SDS011;3639;51.308;5.624;2022-11-06T17:43:06;4.73;;;3.10;;
7195;SDS011;3639;51.308;5.624;2022-11-06T17:45:31;3.17;;;2.63;;
7195;SDS011;3639;51.308;5.624;2022-11-06T17:47:57;2.83;;;2.50;;
7195;SDS011;3639;51.308;5.624;2022-11-06T17:50:23;7.10;;;3.20;;
7195;SDS011;3639;51.308;5.624;2022-11-06T17:52:48;2.93;;;2.73;;
7195;SDS011;3639;51.308;5.624;2022-11-06T17:55:14;4.73;;;3.00;;
7195;SDS011;3639;51.308;5.624;2022-11-06T17:57:40;5.03;;;3.30;;
7195;SDS011;3639;51.308;5.624;2022-11-06T18:00:06;5.63;;;3.00;;
7195;SDS011;3639;51.308;5.624;2022-11-06T18:02:34;4.97;;;2.77;;
7195;SDS011;3639;51.308;5.624;2022-11-06T18:05:00;4.90;;;2.73;;
7195;SDS011;3639;51.308;5.624;2022-11-06T18:07:26;5.57;;;2.97;;
7195;SDS011;3639;51.308;5.624;2022-11-06T18:09:51;4.83;;;3.00;;
7195;SDS011;3639;51.308;5.624;2022-11-06T18:12:17;4.43;;;2.73;;
7195;SDS011;3639;51.308;5.624;2022-11-06T18:14:45;3.47;;;2.73;;
7195;SDS011;3639;51.308;5.624;2022-11-06T18:17:11;4.00;;;2.50;;
7195;SDS011;3639;51.308;5.624;2022-11-06T18:19:37;4.93;;;2.80;;
7195;SDS011;3639;51.308;5.624;2022-11-06T18:22:03;3.27;;;2.80;;
7195;SDS011;3639;51.308;5.624;2022-11-06T18:24:28;4.00;;;2.97;;
7195;SDS011;3639;51.308;5.624;2022-11-06T18:26:54;3.60;;;2.80;;